createdAt,value
2019-05-22T00:00:00.571Z,42.72
2019-05-22T00:02:35.586Z,42.76
2019-05-22T00:05:14.408Z,42.80
2019-05-22T00:07:45.314Z,42.74
2019-05-22T00:10:19.039Z,42.77
2019-05-22T00:12:50.118Z,42.71
2019-05-22T00:15:21.300Z,42.63
2019-05-22T00:17:51.570Z,42.56
2019-05-22T00:20:23.385Z,42.56
2019-05-22T00:22:54.092Z,42.51
2019-05-22T00:25:26.483Z,42.48
2019-05-22T00:27:56.035Z,42.59
2019-05-22T00:30:27.339Z,42.59
2019-05-22T00:32:57.988Z,42.51
2019-05-22T00:35:29.060Z,42.44
2019-05-22T00:37:58.926Z,42.51
2019-05-22T00:40:29.253Z,42.50
2019-05-22T00:43:04.015Z,42.45
2019-05-22T00:45:31.888Z,42.51
2019-05-22T00:48:03.160Z,42.49
2019-05-22T00:50:40.528Z,42.51
2019-05-22T00:53:47.174Z,42.38
2019-05-22T00:56:34.113Z,42.35
2019-05-22T00:59:08.779Z,42.39
2019-05-22T01:01:45.641Z,42.32
2019-05-22T01:04:17.005Z,42.25
2019-05-22T01:06:48.554Z,42.24
2019-05-22T01:09:25.478Z,42.23
2019-05-22T01:11:56.921Z,42.16
2019-05-22T01:14:40.472Z,42.18
2019-05-22T01:16:59.512Z,42.18
2019-05-22T01:19:31.114Z,42.04
2019-05-22T01:22:01.710Z,42.06
2019-05-22T01:24:33.119Z,42.04
2019-05-22T01:27:04.560Z,42.11
2019-05-22T01:29:34.091Z,42.12
2019-05-22T01:32:26.180Z,42.12
2019-05-22T01:34:56.895Z,42.16
2019-05-22T01:37:27.410Z,42.15
2019-05-22T01:40:06.523Z,42.18
2019-05-22T01:42:41.111Z,42.21
2019-05-22T01:45:13.706Z,42.18
2019-05-22T01:47:50.902Z,42.19
2019-05-22T01:50:40.981Z,42.16
2019-05-22T01:53:12.272Z,42.16
2019-05-22T01:55:43.463Z,42.20
2019-05-22T01:58:12.932Z,42.17
2019-05-22T02:00:44.169Z,42.19
2019-05-22T02:03:14.693Z,42.11
2019-05-22T02:05:44.307Z,42.00
2019-05-22T02:08:14.262Z,41.94
2019-05-22T02:10:44.253Z,41.98
2019-05-22T02:13:15.342Z,41.88
2019-05-22T02:15:46.153Z,41.80
2019-05-22T02:18:16.385Z,41.79
2019-05-22T02:20:46.367Z,41.81
2019-05-22T02:23:17.033Z,41.80
2019-05-22T02:25:47.197Z,41.86
2019-05-22T02:28:18.363Z,41.88
2019-05-22T02:30:49.195Z,41.86
2019-05-22T02:33:21.277Z,41.92
2019-05-22T02:35:51.210Z,41.92
2019-05-22T02:38:22.240Z,41.79
2019-05-22T02:40:53.097Z,41.85
2019-05-22T02:43:25.406Z,41.92
2019-05-22T02:45:56.123Z,42.09
2019-05-22T02:48:27.829Z,42.08
2019-05-22T02:50:57.865Z,42.12
2019-05-22T02:53:27.412Z,42.11
2019-05-22T02:55:57.529Z,42.22
2019-05-22T02:58:28.820Z,43.10
2019-05-22T03:01:00.274Z,43.69
2019-05-22T03:03:32.012Z,44.00
2019-05-22T03:06:01.806Z,44.13
2019-05-22T03:08:54.070Z,44.23
2019-05-22T03:11:24.809Z,43.99
2019-05-22T03:13:59.649Z,44.14
2019-05-22T03:16:36.158Z,44.05
2019-05-22T03:19:08.904Z,43.86
2019-05-22T03:21:38.499Z,43.81
2019-05-22T03:24:08.350Z,43.53
2019-05-22T03:26:42.328Z,43.50
2019-05-22T03:29:12.180Z,43.42
2019-05-22T03:31:42.079Z,43.38
2019-05-22T03:34:12.331Z,43.32
2019-05-22T03:36:42.975Z,43.31
2019-05-22T03:39:13.957Z,43.26
2019-05-22T03:41:43.992Z,43.19
2019-05-22T03:44:13.699Z,43.21
2019-05-22T03:46:44.553Z,42.99
2019-05-22T03:49:28.916Z,42.97
2019-05-22T03:51:50.666Z,43.02
2019-05-22T03:54:21.902Z,42.92
2019-05-22T03:56:51.906Z,42.96
2019-05-22T03:59:21.924Z,42.89
2019-05-22T04:01:52.444Z,42.90
2019-05-22T04:04:36.424Z,42.92
2019-05-22T04:07:08.503Z,42.90
2019-05-22T04:09:40.034Z,42.91
2019-05-22T04:12:11.634Z,42.85
2019-05-22T04:14:42.386Z,42.84
2019-05-22T04:17:13.304Z,42.76
2019-05-22T04:19:50.288Z,42.75
2019-05-22T04:22:16.380Z,42.75
2019-05-22T04:24:46.673Z,42.74
2019-05-22T04:27:16.920Z,42.73
2019-05-22T04:29:47.566Z,42.68
2019-05-22T04:32:23.349Z,42.54
2019-05-22T04:34:53.002Z,42.58
2019-05-22T04:37:23.552Z,42.56
2019-05-22T04:39:55.339Z,42.48
2019-05-22T04:42:27.057Z,42.48
2019-05-22T04:45:11.033Z,42.42
2019-05-22T04:47:40.915Z,42.52
2019-05-22T04:50:10.800Z,42.39
2019-05-22T04:52:41.806Z,42.42
2019-05-22T04:55:13.329Z,42.20
2019-05-22T04:57:43.219Z,42.32
2019-05-22T05:00:12.941Z,42.36
2019-05-22T05:02:42.797Z,42.35
2019-05-22T05:05:12.457Z,42.37
2019-05-22T05:07:43.968Z,42.36
2019-05-22T05:10:13.592Z,42.36
2019-05-22T05:12:43.143Z,42.35
2019-05-22T05:15:13.205Z,42.28
2019-05-22T05:17:42.730Z,42.29
2019-05-22T05:20:22.164Z,42.25
2019-05-22T05:22:45.583Z,42.21
2019-05-22T05:25:15.387Z,42.14
2019-05-22T05:27:44.959Z,42.18
2019-05-22T05:30:14.910Z,42.18
2019-05-22T05:32:44.485Z,42.15
2019-05-22T05:35:14.944Z,42.13
2019-05-22T05:37:44.616Z,42.13
2019-05-22T05:40:41.347Z,42.07
2019-05-22T05:43:15.974Z,41.99
2019-05-22T05:45:46.921Z,42.06
2019-05-22T05:48:19.906Z,42.08
2019-05-22T05:51:43.090Z,42.10
2019-05-22T05:54:14.047Z,42.06
2019-05-22T05:56:46.274Z,42.02
2019-05-22T05:59:16.485Z,42.02
2019-05-22T06:01:48.852Z,42.04
2019-05-22T06:04:35.099Z,42.03
2019-05-22T06:07:19.812Z,41.95
2019-05-22T06:10:39.560Z,41.96
2019-05-22T06:13:09.949Z,41.95
2019-05-22T06:16:00.334Z,41.92
2019-05-22T06:18:36.326Z,41.91
2019-05-22T06:21:07.412Z,41.89
2019-05-22T06:24:23.386Z,41.85
2019-05-22T06:27:02.342Z,42.02
2019-05-22T06:29:36.778Z,42.18
2019-05-22T06:32:55.451Z,42.42
2019-05-22T06:35:26.728Z,42.32
2019-05-22T06:38:08.847Z,42.42
2019-05-22T06:40:38.401Z,42.59
2019-05-22T06:43:57.520Z,42.56
2019-05-22T06:46:52.272Z,42.37
2019-05-22T06:49:37.530Z,42.22
2019-05-22T06:52:07.700Z,42.02
2019-05-22T06:54:38.290Z,41.64
2019-05-22T06:57:12.212Z,41.46
2019-05-22T06:59:43.494Z,41.44
2019-05-22T07:02:15.274Z,41.78
2019-05-22T07:04:44.899Z,41.61
2019-05-22T07:07:15.584Z,41.27
2019-05-22T07:10:03.677Z,41.51
2019-05-22T07:12:35.329Z,41.39
2019-05-22T07:15:28.474Z,41.06
2019-05-22T07:17:58.778Z,41.10
2019-05-22T07:20:30.833Z,40.87
2019-05-22T07:23:01.984Z,40.94
2019-05-22T07:25:33.089Z,40.95
2019-05-22T07:28:03.411Z,40.82
2019-05-22T07:30:33.863Z,40.86
2019-05-22T07:33:03.689Z,40.84
2019-05-22T07:35:49.835Z,40.77
2019-05-22T07:38:05.328Z,40.78
2019-05-22T07:40:35.780Z,40.67
2019-05-22T07:43:05.467Z,40.69
2019-05-22T07:45:35.968Z,40.45
2019-05-22T07:48:07.999Z,40.45
2019-05-22T07:50:42.131Z,40.50
2019-05-22T07:53:12.052Z,40.35
2019-05-22T07:55:41.902Z,40.42
2019-05-22T07:58:13.988Z,40.33
2019-05-22T08:00:50.324Z,40.58
2019-05-22T08:03:20.163Z,40.52
2019-05-22T08:05:53.603Z,40.52
2019-05-22T08:08:23.716Z,40.37
2019-05-22T08:10:54.398Z,40.42
2019-05-22T08:13:24.344Z,40.46
2019-05-22T08:15:54.362Z,40.33
2019-05-22T08:18:25.145Z,40.30
2019-05-22T08:20:54.697Z,40.18
2019-05-22T08:23:24.332Z,40.11
2019-05-22T08:25:53.889Z,40.14
2019-05-22T08:28:23.587Z,40.23
2019-05-22T08:30:53.525Z,40.32
2019-05-22T08:33:24.059Z,40.27
2019-05-22T08:35:53.844Z,40.38
2019-05-22T08:38:27.925Z,40.44
2019-05-22T08:40:59.376Z,40.38
2019-05-22T08:43:29.470Z,40.36
2019-05-22T08:45:59.081Z,40.40
2019-05-22T08:48:29.383Z,40.26
2019-05-22T08:51:00.153Z,40.30
2019-05-22T08:53:44.378Z,40.21
2019-05-22T08:56:01.844Z,40.05
2019-05-22T08:58:32.082Z,39.93
2019-05-22T09:01:01.653Z,39.92
2019-05-22T09:03:31.232Z,40.16
2019-05-22T09:06:00.919Z,40.52
2019-05-22T09:08:31.325Z,40.63
2019-05-22T09:11:00.876Z,40.96
2019-05-22T09:13:30.414Z,40.92
2019-05-22T09:16:01.934Z,40.80
2019-05-22T09:18:32.177Z,40.84
2019-05-22T09:21:01.943Z,40.84
2019-05-22T09:23:31.517Z,40.97
2019-05-22T09:26:01.228Z,41.01
2019-05-22T09:28:30.762Z,40.92
2019-05-22T09:31:00.448Z,41.01
2019-05-22T09:33:30.040Z,41.20
2019-05-22T09:35:59.588Z,40.95
2019-05-22T09:38:29.242Z,41.21
2019-05-22T09:40:59.567Z,41.08
2019-05-22T09:43:29.126Z,41.14
2019-05-22T09:45:58.679Z,40.96
2019-05-22T09:48:28.282Z,41.17
2019-05-22T09:50:58.208Z,40.96
2019-05-22T09:53:28.560Z,40.96
2019-05-22T09:55:58.257Z,41.11
2019-05-22T09:58:28.793Z,41.03
2019-05-22T10:00:58.725Z,41.18
2019-05-22T10:03:28.283Z,41.11
2019-05-22T10:05:58.755Z,40.86
2019-05-22T10:08:28.817Z,40.94
2019-05-22T10:10:58.772Z,41.26
2019-05-22T10:13:29.445Z,41.06
2019-05-22T10:15:59.023Z,41.39
2019-05-22T10:18:28.768Z,41.20
2019-05-22T10:20:58.434Z,41.09
2019-05-22T10:23:28.417Z,41.08
2019-05-22T10:25:57.963Z,41.31
2019-05-22T10:28:27.999Z,41.46
2019-05-22T10:30:58.319Z,41.40
2019-05-22T10:33:28.349Z,40.90
2019-05-22T10:35:58.761Z,41.04
2019-05-22T10:38:28.443Z,40.82
2019-05-22T10:40:59.515Z,40.79
2019-05-22T10:43:29.570Z,40.70
2019-05-22T10:45:59.553Z,40.56
2019-05-22T10:48:29.191Z,40.53
2019-05-22T10:50:58.738Z,40.30
2019-05-22T10:53:33.516Z,40.33
2019-05-22T10:55:59.829Z,40.27
2019-05-22T10:58:29.654Z,40.22
2019-05-22T11:00:59.799Z,40.65
2019-05-22T11:03:29.578Z,40.85
2019-05-22T11:06:07.311Z,40.66
2019-05-22T11:08:34.340Z,40.45
2019-05-22T11:11:03.471Z,40.56
2019-05-22T11:13:34.461Z,40.72
2019-05-22T11:16:04.636Z,40.71
2019-05-22T11:18:34.888Z,40.79
2019-05-22T11:21:04.560Z,40.62
2019-05-22T11:23:50.363Z,40.27
2019-05-22T11:26:05.441Z,40.15
2019-05-22T11:28:35.305Z,40.02
2019-05-22T11:31:06.616Z,39.91
2019-05-22T11:33:36.376Z,39.87
2019-05-22T11:36:06.595Z,40.04
2019-05-22T11:38:36.165Z,40.08
2019-05-22T11:41:06.748Z,39.89
2019-05-22T11:43:36.319Z,39.99
2019-05-22T11:46:06.609Z,39.61
2019-05-22T11:48:36.176Z,39.67
2019-05-22T11:51:05.741Z,39.38
2019-05-22T11:53:35.669Z,39.53
2019-05-22T11:56:05.253Z,39.56
2019-05-22T11:58:34.866Z,39.91
2019-05-22T12:01:05.093Z,39.38
2019-05-22T12:03:34.688Z,39.00
2019-05-22T12:06:05.439Z,39.27
2019-05-22T12:08:35.771Z,39.10
2019-05-22T12:11:05.894Z,38.62
2019-05-22T12:13:35.504Z,38.16
2019-05-22T12:16:05.566Z,38.22
2019-05-22T12:18:35.535Z,38.34
2019-05-22T12:21:05.175Z,38.08
2019-05-22T12:23:35.017Z,38.36
2019-05-22T12:26:04.996Z,38.35
2019-05-22T12:28:34.552Z,38.66
2019-05-22T12:31:04.944Z,38.78
2019-05-22T12:33:34.494Z,38.94
2019-05-22T12:36:05.876Z,39.08
2019-05-22T12:38:35.428Z,38.92
2019-05-22T12:41:05.333Z,39.18
2019-05-22T12:43:35.243Z,38.75
2019-05-22T12:46:04.787Z,38.41
2019-05-22T12:48:34.561Z,38.53
2019-05-22T12:51:04.959Z,38.35
2019-05-22T12:53:34.744Z,38.29
2019-05-22T12:56:06.348Z,38.19
2019-05-22T12:58:35.910Z,38.29
2019-05-22T13:01:06.076Z,38.27
2019-05-22T13:03:36.298Z,38.17
2019-05-22T13:06:06.642Z,38.16
2019-05-22T13:08:36.709Z,38.41
2019-05-22T13:11:06.818Z,38.71
2019-05-22T13:13:36.436Z,38.83
2019-05-22T13:16:06.050Z,38.75
2019-05-22T13:18:36.387Z,38.70
2019-05-22T13:21:07.991Z,38.62
2019-05-22T13:23:39.530Z,38.81
2019-05-22T13:26:09.339Z,38.54
2019-05-22T13:28:39.941Z,38.37
2019-05-22T13:31:09.882Z,38.73
2019-05-22T13:33:39.928Z,38.69
2019-05-22T13:36:10.913Z,38.79
2019-05-22T13:38:40.565Z,38.69
2019-05-22T13:41:10.597Z,38.68
2019-05-22T13:43:40.165Z,38.74
2019-05-22T13:46:09.719Z,38.41
2019-05-22T13:48:39.691Z,38.77
2019-05-22T13:51:09.326Z,38.86
2019-05-22T13:53:39.232Z,38.79
2019-05-22T13:56:09.283Z,38.87
2019-05-22T13:58:38.961Z,38.67
2019-05-22T14:01:08.579Z,38.48
2019-05-22T14:03:38.534Z,38.77
2019-05-22T14:06:08.183Z,38.79
2019-05-22T14:08:38.252Z,38.85
2019-05-22T14:11:08.179Z,38.63
2019-05-22T14:13:38.227Z,38.34
2019-05-22T14:16:07.766Z,38.26
2019-05-22T14:18:37.327Z,38.30
2019-05-22T14:21:06.994Z,38.33
2019-05-22T14:23:37.286Z,38.56
2019-05-22T14:26:07.087Z,38.69
2019-05-22T14:28:36.850Z,38.25
2019-05-22T14:31:06.435Z,38.10
2019-05-22T14:33:40.215Z,37.91
2019-05-22T14:36:07.287Z,37.52
2019-05-22T14:38:36.879Z,37.56
2019-05-22T14:41:06.894Z,37.27
2019-05-22T14:43:36.453Z,36.91
2019-05-22T14:46:06.326Z,36.78
2019-05-22T14:48:35.993Z,36.43
2019-05-22T14:51:05.911Z,36.31
2019-05-22T14:53:37.093Z,36.19
2019-05-22T14:56:10.908Z,36.34
2019-05-22T14:58:40.847Z,36.22
2019-05-22T15:01:10.512Z,35.71
2019-05-22T15:03:40.096Z,35.25
2019-05-22T15:06:09.661Z,34.73
2019-05-22T15:08:39.209Z,34.29
2019-05-22T15:11:09.055Z,34.43
2019-05-22T15:13:38.675Z,34.24
2019-05-22T15:16:08.316Z,34.23
2019-05-22T15:18:37.886Z,34.34
2019-05-22T15:21:08.240Z,34.77
2019-05-22T15:23:38.488Z,35.06
2019-05-22T15:26:08.038Z,34.38
2019-05-22T15:28:37.655Z,34.11
2019-05-22T15:31:07.344Z,33.69
2019-05-22T15:33:36.869Z,33.86
2019-05-22T15:36:07.964Z,33.51
2019-05-22T15:38:38.229Z,33.33
2019-05-22T15:41:08.048Z,33.49
2019-05-22T15:43:38.086Z,33.54
2019-05-22T15:46:08.506Z,33.46
2019-05-22T15:48:38.332Z,33.54
2019-05-22T15:51:08.989Z,33.47
2019-05-22T15:53:40.536Z,33.39
2019-05-22T15:56:10.389Z,33.29
2019-05-22T15:58:42.029Z,33.29
2019-05-22T16:01:13.053Z,33.22
2019-05-22T16:03:43.252Z,33.15
2019-05-22T16:06:13.065Z,33.47
2019-05-22T16:08:43.296Z,33.27
2019-05-22T16:11:14.225Z,33.25
2019-05-22T16:13:44.257Z,33.24
2019-05-22T16:16:14.712Z,33.38
2019-05-22T16:18:45.185Z,33.32
2019-05-22T16:21:14.781Z,33.74
2019-05-22T16:23:44.602Z,33.79
2019-05-22T16:26:14.640Z,33.66
2019-05-22T16:28:45.846Z,33.88
2019-05-22T16:31:16.380Z,34.58
2019-05-22T16:33:47.362Z,34.68
2019-05-22T16:36:18.752Z,34.66
2019-05-22T16:38:48.783Z,34.47
2019-05-22T16:41:18.361Z,34.50
2019-05-22T16:43:50.217Z,34.45
2019-05-22T16:46:20.419Z,34.72
2019-05-22T16:48:50.041Z,34.75
2019-05-22T16:51:19.989Z,34.64
2019-05-22T16:53:51.889Z,34.62
2019-05-22T16:56:23.203Z,34.66
2019-05-22T16:58:53.012Z,35.02
2019-05-22T17:01:22.695Z,35.17
2019-05-22T17:03:54.026Z,35.01
2019-05-22T17:06:26.049Z,34.87
2019-05-22T17:08:57.150Z,35.14
2019-05-22T17:11:27.769Z,35.07
2019-05-22T17:13:59.089Z,34.72
2019-05-22T17:16:29.413Z,34.85
2019-05-22T17:18:59.039Z,35.12
2019-05-22T17:21:28.957Z,34.78
2019-05-22T17:23:59.220Z,34.29
2019-05-22T17:26:28.883Z,34.64
2019-05-22T17:28:58.493Z,34.51
2019-05-22T17:31:28.942Z,34.26
2019-05-22T17:33:59.157Z,34.15
2019-05-22T17:36:30.643Z,34.11
2019-05-22T17:39:01.125Z,34.66
2019-05-22T17:41:30.720Z,34.70
2019-05-22T17:44:01.541Z,34.61
2019-05-22T17:46:31.366Z,34.46
2019-05-22T17:49:01.218Z,34.57
2019-05-22T17:51:31.729Z,34.54
2019-05-22T17:54:01.306Z,34.47
2019-05-22T17:56:31.027Z,34.34
2019-05-22T17:59:00.720Z,34.73
2019-05-22T18:01:30.771Z,34.36
2019-05-22T18:04:00.321Z,34.31
2019-05-22T18:06:29.902Z,34.26
2019-05-22T18:08:59.573Z,34.32
2019-05-22T18:11:29.305Z,34.79
2019-05-22T18:14:00.583Z,34.73
2019-05-22T18:16:31.056Z,34.91
2019-05-22T18:19:00.877Z,34.70
2019-05-22T18:21:32.217Z,34.82
2019-05-22T18:24:01.928Z,34.83
2019-05-22T18:26:31.655Z,34.84
2019-05-22T18:29:01.312Z,34.67
2019-05-22T18:31:30.895Z,34.87
2019-05-22T18:34:00.488Z,34.73
2019-05-22T18:36:30.081Z,34.62
2019-05-22T18:38:59.678Z,34.84
2019-05-22T18:41:29.254Z,34.73
2019-05-22T18:43:59.105Z,34.89
2019-05-22T18:46:28.949Z,35.09
2019-05-22T18:48:58.498Z,35.18
2019-05-22T18:51:28.564Z,35.24
2019-05-22T18:53:58.134Z,35.17
2019-05-22T18:56:27.932Z,35.25
2019-05-22T18:58:57.676Z,35.17
2019-05-22T19:01:27.724Z,34.85
2019-05-22T19:03:57.276Z,34.98
2019-05-22T19:06:30.665Z,34.75
2019-05-22T19:08:58.580Z,34.64
2019-05-22T19:11:28.512Z,34.56
2019-05-22T19:13:58.096Z,34.44
2019-05-22T19:16:27.662Z,34.41
2019-05-22T19:18:57.216Z,34.30
2019-05-22T19:21:26.843Z,34.23
2019-05-22T19:23:56.437Z,34.54
2019-05-22T19:26:26.680Z,34.60
2019-05-22T19:28:56.225Z,34.84
2019-05-22T19:31:26.130Z,34.66
2019-05-22T19:33:56.130Z,34.42
2019-05-22T19:36:25.689Z,34.65
2019-05-22T19:38:55.284Z,34.53
2019-05-22T19:41:25.029Z,34.71
2019-05-22T19:43:54.790Z,34.58
2019-05-22T19:46:24.585Z,34.41
2019-05-22T19:48:54.600Z,34.37
2019-05-22T19:51:24.214Z,34.39
2019-05-22T19:53:54.488Z,34.46
2019-05-22T19:56:24.401Z,34.50
2019-05-22T19:59:12.795Z,34.34
2019-05-22T20:01:42.540Z,34.33
2019-05-22T20:04:12.245Z,34.59
2019-05-22T20:06:41.782Z,34.73
2019-05-22T20:09:11.832Z,34.77
2019-05-22T20:11:41.778Z,34.77
2019-05-22T20:14:11.673Z,34.83
2019-05-22T20:16:41.222Z,34.99
2019-05-22T20:19:11.624Z,35.52
2019-05-22T20:21:41.515Z,35.75
2019-05-22T20:24:12.131Z,35.64
2019-05-22T20:26:41.937Z,35.45
2019-05-22T20:29:12.389Z,35.55
2019-05-22T20:31:42.034Z,35.61
2019-05-22T20:34:11.612Z,35.80
2019-05-22T20:36:41.616Z,36.05
2019-05-22T20:39:12.813Z,35.81
2019-05-22T20:41:42.809Z,35.95
2019-05-22T20:44:12.615Z,35.71
2019-05-22T20:46:43.020Z,35.67
2019-05-22T20:49:12.789Z,35.82
2019-05-22T20:51:43.835Z,36.04
2019-05-22T20:54:15.076Z,36.18
2019-05-22T20:56:46.830Z,36.02
2019-05-22T20:59:17.070Z,35.99
2019-05-22T21:01:46.924Z,35.70
2019-05-22T21:04:18.877Z,35.74
2019-05-22T21:06:55.005Z,35.63
2019-05-22T21:09:24.794Z,35.68
2019-05-22T21:11:54.499Z,35.54
2019-05-22T21:14:24.376Z,35.48
2019-05-22T21:16:53.946Z,35.56
2019-05-22T21:19:23.952Z,35.53
2019-05-22T21:21:55.902Z,35.39
2019-05-22T21:24:26.438Z,35.39
2019-05-22T21:26:56.068Z,35.44
2019-05-22T21:29:25.781Z,35.40
2019-05-22T21:31:55.422Z,35.43
2019-05-22T21:34:25.936Z,35.24
2019-05-22T21:36:55.501Z,35.32
2019-05-22T21:39:25.695Z,35.39
2019-05-22T21:41:55.324Z,35.42
2019-05-22T21:44:24.881Z,35.43
2019-05-22T21:46:54.864Z,35.44
2019-05-22T21:49:25.538Z,35.40
2019-05-22T21:51:55.578Z,35.40
2019-05-22T21:54:25.251Z,35.36
2019-05-22T21:56:55.117Z,35.34
2019-05-22T21:59:25.091Z,35.38
2019-05-22T22:02:03.112Z,35.34
2019-05-22T22:04:36.153Z,35.29
2019-05-22T22:07:06.921Z,35.36
2019-05-22T22:09:37.166Z,35.36
2019-05-22T22:12:08.352Z,35.32
2019-05-22T22:14:38.236Z,35.33
2019-05-22T22:17:09.426Z,35.38
2019-05-22T22:19:39.434Z,35.38
2019-05-22T22:22:10.704Z,35.36
2019-05-22T22:24:40.267Z,35.34
2019-05-22T22:27:10.200Z,35.36
2019-05-22T22:29:40.102Z,35.40
2019-05-22T22:32:11.364Z,35.43
2019-05-22T22:34:45.482Z,35.45
2019-05-22T22:37:16.828Z,35.46
2019-05-22T22:39:50.179Z,35.48
2019-05-22T22:42:21.302Z,35.46
2019-05-22T22:44:54.276Z,35.51
2019-05-22T22:47:45.422Z,35.56
2019-05-22T22:50:16.681Z,35.57
2019-05-22T22:52:46.999Z,35.62
2019-05-22T22:55:19.061Z,35.55
2019-05-22T22:57:49.718Z,35.62
2019-05-22T23:00:25.209Z,35.57
2019-05-22T23:02:54.772Z,35.56
2019-05-22T23:05:24.456Z,35.55
2019-05-22T23:07:54.615Z,35.52
2019-05-22T23:10:24.457Z,35.51
2019-05-22T23:12:54.279Z,35.52
2019-05-22T23:15:25.601Z,35.56
2019-05-22T23:17:55.599Z,35.53
2019-05-22T23:20:43.770Z,35.52
2019-05-22T23:23:13.809Z,35.48
2019-05-22T23:25:43.338Z,35.54
2019-05-22T23:28:13.059Z,35.55
2019-05-22T23:30:42.679Z,35.58
2019-05-22T23:33:12.206Z,35.56
2019-05-22T23:35:41.805Z,35.56
2019-05-22T23:38:11.651Z,35.58
2019-05-22T23:40:41.199Z,35.53
2019-05-22T23:43:10.734Z,35.61
2019-05-22T23:45:40.271Z,35.55
2019-05-22T23:48:16.129Z,35.62
2019-05-22T23:50:47.289Z,35.62
2019-05-22T23:53:18.461Z,35.66
2019-05-22T23:55:48.640Z,35.69
2019-05-22T23:58:51.616Z,35.62
